createdAt,value
2023-07-17T00:00:46.150Z,30.61
2023-07-17T00:01:38.799Z,30.89
2023-07-17T00:02:37.774Z,31.39
2023-07-17T00:03:37.778Z,29.68
2023-07-17T00:04:37.741Z,31.76
2023-07-17T00:05:37.766Z,29.95
2023-07-17T00:06:37.783Z,29.69
2023-07-17T00:07:37.766Z,29.10
2023-07-17T00:08:37.780Z,27.87
2023-07-17T00:09:37.795Z,28.63
2023-07-17T00:10:37.796Z,31.01
2023-07-17T00:11:37.790Z,28.73
2023-07-17T00:12:37.802Z,27.04
2023-07-17T00:13:37.804Z,26.12
2023-07-17T00:14:37.796Z,28.41
2023-07-17T00:15:37.796Z,26.37
2023-07-17T00:16:37.857Z,28.79
2023-07-17T00:17:37.924Z,26.73
2023-07-17T00:18:37.812Z,26.71
2023-07-17T00:19:37.808Z,27.23
2023-07-17T00:20:37.818Z,25.85
2023-07-17T00:21:37.830Z,25.03
2023-07-17T00:22:37.881Z,29.04
2023-07-17T00:23:37.854Z,30.35
2023-07-17T00:24:37.853Z,28.91
2023-07-17T00:25:37.848Z,29.86
2023-07-17T00:26:38.092Z,27.95
2023-07-17T00:27:37.912Z,30.89
2023-07-17T00:28:37.949Z,26.22
2023-07-17T00:29:37.978Z,28.49
2023-07-17T00:30:38.023Z,27.91
2023-07-17T00:31:38.108Z,26.12
2023-07-17T00:32:38.160Z,28.77
2023-07-17T00:33:38.097Z,29.72
2023-07-17T00:34:38.119Z,29.89
2023-07-17T00:35:38.142Z,31.23
2023-07-17T00:36:38.183Z,29.05
2023-07-17T00:37:38.212Z,27.77
2023-07-17T00:38:38.234Z,29.49
2023-07-17T00:39:38.246Z,28.49
2023-07-17T00:40:38.288Z,25.33
2023-07-17T00:41:38.322Z,28.96
2023-07-17T00:42:38.350Z,27.57
2023-07-17T00:43:38.396Z,29.24
2023-07-17T00:44:38.401Z,28.74
2023-07-17T00:45:38.426Z,27.19
2023-07-17T00:46:38.480Z,29.17
2023-07-17T00:47:38.527Z,27.96
2023-07-17T00:48:38.510Z,25.00
2023-07-17T00:49:38.533Z,27.12
2023-07-17T00:50:38.571Z,28.52
2023-07-17T00:51:38.596Z,28.91
2023-07-17T00:52:38.625Z,26.71
2023-07-17T00:53:38.651Z,27.39
2023-07-17T00:54:38.685Z,30.72
2023-07-17T00:55:38.710Z,27.20
2023-07-17T00:56:38.774Z,28.24
2023-07-17T00:57:38.794Z,26.25
2023-07-17T00:58:38.814Z,29.78
2023-07-17T00:59:38.849Z,28.06
2023-07-17T01:00:38.914Z,28.10
2023-07-17T01:01:38.928Z,28.06
2023-07-17T01:02:39.022Z,28.09
2023-07-17T01:03:39.031Z,25.39
2023-07-17T01:04:39.012Z,26.51
2023-07-17T01:05:39.040Z,28.82
2023-07-17T01:06:39.077Z,30.00
2023-07-17T01:07:39.098Z,27.41
2023-07-17T01:08:39.124Z,29.99
2023-07-17T01:09:39.155Z,29.36
2023-07-17T01:10:39.186Z,27.65
2023-07-17T01:11:39.202Z,29.67
2023-07-17T01:12:39.243Z,29.00
2023-07-17T01:13:39.265Z,29.14
2023-07-17T01:14:39.332Z,28.29
2023-07-17T01:15:39.338Z,26.18
2023-07-17T01:16:39.399Z,29.00
2023-07-17T01:17:39.417Z,30.08
2023-07-17T01:18:39.439Z,28.66
2023-07-17T01:19:39.450Z,28.40
2023-07-17T01:20:39.472Z,25.51
2023-07-17T01:21:39.505Z,28.69
2023-07-17T01:22:39.548Z,29.30
2023-07-17T01:23:39.555Z,26.29
2023-07-17T01:24:39.592Z,29.08
2023-07-17T01:25:39.646Z,26.67
2023-07-17T01:26:39.642Z,30.05
2023-07-17T01:27:39.672Z,26.52
2023-07-17T01:28:39.693Z,25.88
2023-07-17T01:29:39.729Z,28.10
2023-07-17T01:30:39.809Z,26.32
2023-07-17T01:31:39.790Z,25.80
2023-07-17T01:32:39.843Z,28.09
2023-07-17T01:33:39.842Z,27.23
2023-07-17T01:34:39.876Z,29.45
2023-07-17T01:35:39.897Z,30.48
2023-07-17T01:36:39.928Z,26.79
2023-07-17T01:37:39.956Z,26.51
2023-07-17T01:38:39.980Z,27.48
2023-07-17T01:39:40.016Z,27.85
2023-07-17T01:40:40.050Z,28.83
2023-07-17T01:41:40.073Z,26.81
2023-07-17T01:42:40.105Z,28.97
2023-07-17T01:43:40.138Z,30.82
2023-07-17T01:44:40.171Z,28.38
2023-07-17T01:45:40.188Z,27.66
2023-07-17T01:46:40.245Z,29.59
2023-07-17T01:47:40.394Z,31.58
2023-07-17T01:48:40.268Z,29.43
2023-07-17T01:49:40.287Z,27.93
2023-07-17T01:50:40.323Z,25.84
2023-07-17T01:51:40.364Z,29.77
2023-07-17T01:52:40.371Z,29.88
2023-07-17T01:53:40.420Z,27.17
2023-07-17T01:54:40.427Z,27.83
2023-07-17T01:55:40.458Z,30.55
2023-07-17T01:56:40.484Z,25.59
2023-07-17T01:57:40.515Z,27.14
2023-07-17T01:58:40.542Z,25.73
2023-07-17T01:59:40.607Z,29.39
2023-07-17T02:00:40.601Z,29.33
2023-07-17T02:01:40.684Z,28.58
2023-07-17T02:02:40.701Z,29.97
2023-07-17T02:03:40.683Z,28.03
2023-07-17T02:04:40.753Z,28.75
2023-07-17T02:05:40.750Z,29.89
2023-07-17T02:06:40.774Z,26.57
2023-07-17T02:07:40.810Z,27.96
2023-07-17T02:08:40.846Z,29.29
2023-07-17T02:09:40.881Z,26.19
2023-07-17T02:10:40.898Z,30.12
2023-07-17T02:11:40.935Z,28.88
2023-07-17T02:12:40.968Z,28.75
2023-07-17T02:13:40.994Z,27.25
2023-07-17T02:14:41.034Z,31.20
2023-07-17T02:15:41.064Z,29.51
2023-07-17T02:16:41.141Z,29.41
2023-07-17T02:17:41.164Z,30.02
2023-07-17T02:18:41.153Z,26.85
2023-07-17T02:19:41.196Z,28.72
2023-07-17T02:20:41.225Z,30.08
2023-07-17T02:21:41.259Z,28.38
2023-07-17T02:22:41.340Z,29.70
2023-07-17T02:23:41.321Z,27.77
2023-07-17T02:24:41.383Z,27.47
2023-07-17T02:25:41.381Z,26.55
2023-07-17T02:26:41.401Z,25.00
2023-07-17T02:27:41.429Z,29.01
2023-07-17T02:28:41.465Z,26.62
2023-07-17T02:29:41.495Z,27.41
2023-07-17T02:30:41.524Z,27.15
2023-07-17T02:31:41.598Z,26.21
2023-07-17T02:32:41.627Z,28.85
2023-07-17T02:33:41.612Z,27.97
2023-07-17T02:34:41.645Z,27.19
2023-07-17T02:35:41.673Z,29.71
2023-07-17T02:36:41.707Z,27.64
2023-07-17T02:37:41.742Z,29.19
2023-07-17T02:38:41.774Z,28.80
2023-07-17T02:39:41.804Z,30.98
2023-07-17T02:40:41.834Z,30.13
2023-07-17T02:41:41.865Z,28.51
2023-07-17T02:42:41.895Z,27.94
2023-07-17T02:43:41.942Z,28.68
2023-07-17T02:44:41.975Z,31.09
2023-07-17T02:45:42.011Z,27.17
2023-07-17T02:46:42.022Z,26.36
2023-07-17T02:47:42.117Z,31.00
2023-07-17T02:48:42.088Z,31.26
2023-07-17T02:49:42.710Z,32.92
2023-07-17T02:50:42.157Z,30.04
2023-07-17T02:51:42.173Z,28.25
2023-07-17T02:52:42.273Z,26.56
2023-07-17T02:53:42.245Z,29.55
2023-07-17T02:54:42.275Z,28.05
2023-07-17T02:55:42.309Z,28.86
2023-07-17T02:56:42.347Z,25.46
2023-07-17T02:57:42.364Z,27.83
2023-07-17T02:58:42.383Z,28.66
2023-07-17T02:59:42.412Z,26.88
2023-07-17T03:00:42.445Z,30.16
2023-07-17T03:01:42.551Z,28.01
2023-07-17T03:02:42.582Z,27.90
2023-07-17T03:03:42.539Z,29.53
2023-07-17T03:04:42.568Z,26.34
2023-07-17T03:05:42.619Z,30.01
2023-07-17T03:06:42.649Z,30.23
2023-07-17T03:07:42.664Z,29.31
2023-07-17T03:08:42.697Z,28.14
2023-07-17T03:09:42.724Z,25.00
2023-07-17T03:10:42.762Z,27.90
2023-07-17T03:11:42.787Z,27.57
2023-07-17T03:12:42.815Z,28.49
2023-07-17T03:13:42.849Z,32.72
2023-07-17T03:14:42.888Z,28.81
2023-07-17T03:15:42.966Z,27.76
2023-07-17T03:16:42.964Z,28.37
2023-07-17T03:17:43.042Z,29.95
2023-07-17T03:18:43.023Z,29.17
2023-07-17T03:19:43.060Z,28.59
2023-07-17T03:20:43.094Z,26.31
2023-07-17T03:21:43.143Z,30.00
2023-07-17T03:22:43.183Z,25.98
2023-07-17T03:23:43.201Z,28.58
2023-07-17T03:24:43.239Z,29.03
2023-07-17T03:25:43.296Z,29.58
2023-07-17T03:26:43.325Z,30.91
2023-07-17T03:27:43.350Z,29.10
2023-07-17T03:28:43.381Z,28.80
2023-07-17T03:29:43.422Z,26.64
2023-07-17T03:30:43.450Z,25.30
2023-07-17T03:31:43.554Z,25.45
2023-07-17T03:32:43.550Z,25.43
2023-07-17T03:33:43.590Z,30.41
2023-07-17T03:34:43.581Z,29.19
2023-07-17T03:35:43.610Z,30.73
2023-07-17T03:36:43.643Z,28.80
2023-07-17T03:37:43.665Z,27.57
2023-07-17T03:38:43.700Z,27.34
2023-07-17T03:39:43.737Z,27.72
2023-07-17T03:40:43.773Z,26.53
2023-07-17T03:41:43.800Z,28.10
2023-07-17T03:42:43.839Z,27.35
2023-07-17T03:43:43.867Z,27.85
2023-07-17T03:44:43.899Z,26.83
2023-07-17T03:45:43.944Z,28.57
2023-07-17T03:46:44.004Z,29.29
2023-07-17T03:47:44.027Z,27.02
2023-07-17T03:48:44.052Z,30.18
2023-07-17T03:49:44.088Z,26.01
2023-07-17T03:50:44.121Z,28.42
2023-07-17T03:51:44.160Z,28.16
2023-07-17T03:52:44.200Z,31.20
2023-07-17T03:53:44.227Z,25.89
2023-07-17T03:54:44.256Z,27.42
2023-07-17T03:55:44.298Z,28.39
2023-07-17T03:56:44.338Z,28.32
2023-07-17T03:57:44.365Z,27.82
2023-07-17T03:58:44.402Z,29.23
2023-07-17T03:59:44.444Z,30.35
2023-07-17T04:00:44.483Z,30.60
2023-07-17T04:01:44.535Z,29.08
2023-07-17T04:02:44.583Z,29.56
2023-07-17T04:03:44.572Z,31.38
2023-07-17T04:04:44.576Z,29.51
2023-07-17T04:05:44.643Z,27.57
2023-07-17T04:06:44.644Z,29.03
2023-07-17T04:07:44.674Z,25.96
2023-07-17T04:08:44.704Z,28.64
2023-07-17T04:09:44.744Z,28.49
2023-07-17T04:10:44.788Z,26.22
2023-07-17T04:11:44.816Z,28.73
2023-07-17T04:12:44.853Z,27.06
2023-07-17T04:13:44.881Z,25.82
2023-07-17T04:14:44.928Z,27.69
2023-07-17T04:15:44.949Z,26.30
2023-07-17T04:16:45.052Z,25.22
2023-07-17T04:17:45.133Z,30.67
2023-07-17T04:18:45.170Z,31.07
2023-07-17T04:19:45.086Z,30.29
2023-07-17T04:20:45.128Z,25.70
2023-07-17T04:21:45.163Z,30.76
2023-07-17T04:22:45.233Z,27.50
2023-07-17T04:23:45.252Z,27.24
2023-07-17T04:24:45.278Z,28.75
2023-07-17T04:25:45.323Z,30.53
2023-07-17T04:26:45.352Z,28.36
2023-07-17T04:27:45.384Z,30.71
2023-07-17T04:28:45.425Z,30.02
2023-07-17T04:29:45.457Z,27.77
2023-07-17T04:30:45.542Z,29.04
2023-07-17T04:31:45.580Z,27.80
2023-07-17T04:32:45.625Z,29.37
2023-07-17T04:33:45.602Z,29.28
2023-07-17T04:34:45.635Z,29.60
2023-07-17T04:35:45.674Z,27.96
2023-07-17T04:36:45.709Z,29.16
2023-07-17T04:37:45.757Z,29.71
2023-07-17T04:38:45.788Z,28.77
2023-07-17T04:39:45.816Z,26.98
2023-07-17T04:40:45.848Z,29.07
2023-07-17T04:41:45.881Z,29.50
2023-07-17T04:42:45.917Z,28.02
2023-07-17T04:43:45.950Z,28.86
2023-07-17T04:44:45.981Z,26.60
2023-07-17T04:45:46.025Z,26.17
2023-07-17T04:46:46.775Z,27.50
2023-07-17T04:47:46.112Z,28.93
2023-07-17T04:48:46.111Z,25.04
2023-07-17T04:49:46.132Z,25.98
2023-07-17T04:50:46.199Z,26.91
2023-07-17T04:51:46.196Z,27.98
2023-07-17T04:52:46.242Z,29.71
2023-07-17T04:53:46.267Z,27.94
2023-07-17T04:54:46.293Z,29.98
2023-07-17T04:55:46.331Z,29.59
2023-07-17T04:56:46.372Z,28.82
2023-07-17T04:57:46.394Z,30.26
2023-07-17T04:58:46.425Z,28.01
2023-07-17T04:59:48.357Z,28.73
2023-07-17T05:00:46.506Z,28.71
2023-07-17T05:01:46.521Z,31.70
2023-07-17T05:02:46.630Z,30.46
2023-07-17T05:03:46.654Z,28.19
2023-07-17T05:04:46.597Z,29.16
2023-07-17T05:05:46.640Z,28.83
2023-07-17T05:06:46.667Z,27.78
2023-07-17T05:07:46.700Z,29.73
2023-07-17T05:08:46.729Z,30.96
2023-07-17T05:09:46.771Z,30.90
2023-07-17T05:10:46.861Z,28.55
2023-07-17T05:11:46.840Z,26.35
2023-07-17T05:12:46.872Z,27.29
2023-07-17T05:13:46.982Z,26.94
2023-07-17T05:14:46.920Z,25.00
2023-07-17T05:15:46.964Z,28.18
2023-07-17T05:16:47.032Z,28.39
2023-07-17T05:17:47.031Z,26.62
2023-07-17T05:18:47.035Z,25.10
2023-07-17T05:19:47.064Z,27.14
2023-07-17T05:20:47.092Z,30.04
2023-07-17T05:21:47.133Z,28.20
2023-07-17T05:22:47.219Z,28.62
2023-07-17T05:23:47.171Z,32.39
2023-07-17T05:24:47.210Z,28.38
2023-07-17T05:25:47.236Z,31.40
2023-07-17T05:26:47.270Z,26.25
2023-07-17T05:27:47.308Z,24.98
2023-07-17T05:28:47.354Z,26.19
2023-07-17T05:29:47.369Z,27.65
2023-07-17T05:30:47.428Z,25.74
2023-07-17T05:31:47.432Z,27.38
2023-07-17T05:32:47.576Z,26.53
2023-07-17T05:33:47.496Z,29.13
2023-07-17T05:34:47.528Z,36.03
2023-07-17T05:35:47.566Z,36.37
2023-07-17T05:36:47.588Z,35.15
2023-07-17T05:37:47.625Z,31.54
2023-07-17T05:38:47.657Z,32.26
2023-07-17T05:39:47.689Z,31.15
2023-07-17T05:40:47.729Z,28.77
2023-07-17T05:41:47.762Z,30.58
2023-07-17T05:42:47.807Z,31.82
2023-07-17T05:43:47.872Z,31.61
2023-07-17T05:44:47.837Z,28.65
2023-07-17T05:45:47.857Z,31.70
2023-07-17T05:46:48.015Z,31.65
2023-07-17T05:47:47.946Z,30.62
2023-07-17T05:48:47.958Z,32.65
2023-07-17T05:49:47.980Z,31.66
2023-07-17T05:50:48.031Z,27.93
2023-07-17T05:51:48.066Z,26.78
2023-07-17T05:52:48.092Z,28.55
2023-07-17T05:53:48.103Z,30.09
2023-07-17T05:54:48.218Z,29.75
2023-07-17T05:55:48.206Z,27.97
2023-07-17T05:56:48.213Z,28.52
2023-07-17T05:57:48.224Z,26.15
2023-07-17T05:58:48.253Z,30.94
2023-07-17T05:59:48.287Z,26.86
2023-07-17T06:00:48.317Z,26.87
2023-07-17T06:01:48.350Z,25.00
2023-07-17T06:02:48.453Z,26.33
2023-07-17T06:03:48.425Z,25.41
2023-07-17T06:04:48.549Z,27.33
2023-07-17T06:05:48.471Z,28.01
2023-07-17T06:06:48.502Z,27.67
2023-07-17T06:07:48.540Z,28.55
2023-07-17T06:08:48.580Z,25.00
2023-07-17T06:09:48.589Z,25.87
2023-07-17T06:10:48.618Z,27.40
2023-07-17T06:11:48.643Z,25.00
2023-07-17T06:12:48.685Z,29.43
2023-07-17T06:13:48.729Z,28.59
2023-07-17T06:14:48.741Z,26.91
2023-07-17T06:15:48.820Z,28.90
2023-07-17T06:16:48.845Z,28.89
2023-07-17T06:17:48.863Z,33.41
2023-07-17T06:18:48.866Z,29.78
2023-07-17T06:19:48.899Z,33.59
2023-07-17T06:20:48.926Z,34.65
2023-07-17T06:21:48.957Z,35.40
2023-07-17T06:22:49.123Z,34.18
2023-07-17T06:23:49.031Z,32.59
2023-07-17T06:24:49.067Z,32.16
2023-07-17T06:25:49.083Z,36.31
2023-07-17T06:26:49.115Z,37.48
2023-07-17T06:27:49.744Z,38.65
2023-07-17T06:28:49.174Z,40.22
2023-07-17T06:29:49.186Z,43.19
2023-07-17T06:30:49.231Z,46.52
2023-07-17T06:31:49.269Z,46.61
2023-07-17T06:32:49.299Z,51.35
2023-07-17T06:33:49.302Z,50.71
2023-07-17T06:34:49.330Z,55.80
2023-07-17T06:35:49.356Z,56.96
2023-07-17T06:36:49.382Z,62.46
2023-07-17T06:37:49.417Z,68.22
2023-07-17T06:38:49.436Z,70.26
2023-07-17T06:39:49.470Z,69.73
2023-07-17T06:40:49.504Z,73.24
2023-07-17T06:41:49.539Z,75.08
2023-07-17T06:42:49.556Z,75.40
2023-07-17T06:43:49.600Z,78.04
2023-07-17T06:44:49.617Z,79.49
2023-07-17T06:45:49.775Z,76.41
2023-07-17T06:46:49.764Z,81.74
2023-07-17T06:47:49.750Z,83.32
2023-07-17T06:48:49.749Z,86.30
2023-07-17T06:49:49.782Z,89.98
2023-07-17T06:50:49.806Z,89.82
2023-07-17T06:51:49.845Z,96.36
2023-07-17T06:52:49.869Z,98.56
2023-07-17T06:53:49.890Z,102.81
2023-07-17T06:55:02.851Z,103.97
2023-07-17T06:55:50.923Z,104.42
2023-07-17T06:56:49.938Z,106.03
2023-07-17T06:57:49.924Z,109.03
2023-07-17T06:58:49.934Z,113.71
2023-07-17T06:59:49.921Z,117.84
2023-07-17T07:00:49.929Z,117.89
2023-07-17T07:01:49.969Z,167.82
